This is the latest recevied weather packets stored in our database for station/object K0JSC-13. If no packets are shown the sender has not sent any weather packets the latest 10 day(s).
| Time | Temp. | Humidity | Pressure | Rain* | Wind** | Luminosity | Snow |
|---|---|---|---|---|---|---|---|
| 1777658043 | 10.56° C | 47% | 1004.9 hPa | 0 mm | - | - | - |
| 1777655343 | 10° C | 53% | 1005.1 hPa | 0 mm | - | - | - |
| 1777653498 | 10° C | 62% | 1005.3 hPa | 0 mm | - | - | - |
| 1777652417 | 8.89° C | 67% | 1005.2 hPa | 0 mm | - | - | - |
| 1777646164 | 6.11° C | 88% | 1005 hPa | 0 mm | - | - | - |
| 1777645623 | 5.56° C | 90% | 1005 hPa | 0 mm | - | - | - |
| 1777642024 | 3.89° C | 95% | 1005.1 hPa | 0 mm | - | - | - |
| 1777640538 | 3.33° C | 95% | 1004.9 hPa | 0 mm | - | - | - |
| 1777635903 | 2.78° C | 94% | 1004.7 hPa | 0 mm | - | - | - |
| 1777633743 | 2.78° C | 94% | 1005 hPa | 0 mm | - | - | - |
| 1777633338 | 2.78° C | 94% | 1005 hPa | 0 mm | - | - | - |
| 1777628703 | 3.33° C | 94% | 1005 hPa | 0 mm | - | - | - |
| 1777620558 | 3.89° C | 94% | 1005.8 hPa | 0.51 mm | - | - | - |
| 1777618803 | 3.89° C | 94% | 1005.9 hPa | 0.51 mm | - | - | - |
| 1777616283 | 3.33° C | 93% | 1005.9 hPa | 0.25 mm | - | - | - |
| 1777613224 | 3.33° C | 92% | 1005.7 hPa | 1.02 mm | - | - | - |
| 1777609084 | 3.89° C | 92% | 1005.3 hPa | 1.02 mm | - | - | - |
| 1777608543 | 3.89° C | 92% | 1005.1 hPa | 1.02 mm | - | - | - |
| 1777607643 | 3.89° C | 92% | 1005.1 hPa | 1.52 mm | - | - | - |
| 1777603097 | 5° C | 92% | 1003.8 hPa | 2.03 mm | - | - | - |
| 1777600803 | 5° C | 91% | 1002.9 hPa | 0.76 mm | - | - | - |
| 1777600444 | 5.56° C | 91% | 1002.9 hPa | 0.51 mm | - | - | - |
| 1777599363 | 5.56° C | 90% | 1002.4 hPa | 0.25 mm | - | - | - |
| 1777593603 | 7.22° C | 84% | 1001 hPa | 0.51 mm | - | - | - |
| 1777593377 | 7.22° C | 83% | 1001 hPa | 0.25 mm | - | - | - |
* Rain latest hour (hover to see other rain measurements)
** Current wind speed in m/s (hover to see current wind gust speed)